Burt, North Dakota
Current Conditions -  °F | °C
As of 6:53 AM on Monday 26 Jan 2015 (Local Time) from KHEI Reporting Station
Clear Clear  
Wind Chill: 27°   Ceiling: Unl
Heat Index: 34°   Visibility: 10mi
Dew Point: 30°   Wind: 8mph
Humidity: 85%   Direction: 290°WNW
Pressure: 29.96"   Gusts: NA
Location:  46.4214°N, 102.296°W
Report Text: KHEI 261353Z AUTO 29007KT 10SM CLR 01/M01 A2996 RMK AO2 SLP163 T00111011
Loading
Personal Weather Stations






























Interactive Weather Map New forecast layout! Learn more

10-Day Weather Forecast

Advertisements
Track Severe Weather on mobile